sensor_id;sensor_type;location;lat;lon;timestamp;temperature;humidity
23769;DHT22;12064;50.890;5.424;2023-07-16T00:03:14;24.30;91.00
23769;DHT22;12064;50.890;5.424;2023-07-16T00:12:05;24.30;91.00
23769;DHT22;12064;50.890;5.424;2023-07-16T00:20:56;24.30;90.70
23769;DHT22;12064;50.890;5.424;2023-07-16T00:29:46;24.20;90.50
23769;DHT22;12064;50.890;5.424;2023-07-16T00:38:37;24.20;90.40
23769;DHT22;12064;50.890;5.424;2023-07-16T00:47:30;24.10;90.30
23769;DHT22;12064;50.890;5.424;2023-07-16T00:56:21;24.10;90.20
23769;DHT22;12064;50.890;5.424;2023-07-16T01:05:11;24.10;90.20
23769;DHT22;12064;50.890;5.424;2023-07-16T01:14:03;24.00;90.30
23769;DHT22;12064;50.890;5.424;2023-07-16T01:23:17;24.00;90.30
23769;DHT22;12064;50.890;5.424;2023-07-16T01:32:15;24.00;90.30
23769;DHT22;12064;50.890;5.424;2023-07-16T01:41:06;23.90;90.30
23769;DHT22;12064;50.890;5.424;2023-07-16T01:49:57;23.80;90.40
23769;DHT22;12064;50.890;5.424;2023-07-16T01:58:47;23.90;90.70
23769;DHT22;12064;50.890;5.424;2023-07-16T02:07:38;23.80;90.60
23769;DHT22;12064;50.890;5.424;2023-07-16T02:16:29;23.80;90.50
23769;DHT22;12064;50.890;5.424;2023-07-16T02:25:19;23.80;90.20
23769;DHT22;12064;50.890;5.424;2023-07-16T02:34:10;23.70;90.20
23769;DHT22;12064;50.890;5.424;2023-07-16T02:43:01;23.70;90.00
23769;DHT22;12064;50.890;5.424;2023-07-16T02:51:51;23.70;89.30
23769;DHT22;12064;50.890;5.424;2023-07-16T03:00:42;23.70;88.90
23769;DHT22;12064;50.890;5.424;2023-07-16T03:09:33;23.60;88.50
23769;DHT22;12064;50.890;5.424;2023-07-16T03:18:28;23.50;88.50
23769;DHT22;12064;50.890;5.424;2023-07-16T03:27:18;23.60;88.30
23769;DHT22;12064;50.890;5.424;2023-07-16T03:36:09;23.50;87.70
23769;DHT22;12064;50.890;5.424;2023-07-16T03:45:00;23.50;87.50
23769;DHT22;12064;50.890;5.424;2023-07-16T03:53:50;23.50;87.40
23769;DHT22;12064;50.890;5.424;2023-07-16T04:02:41;23.50;86.80
23769;DHT22;12064;50.890;5.424;2023-07-16T04:11:35;23.40;86.30
23769;DHT22;12064;50.890;5.424;2023-07-16T04:20:25;23.40;86.00
23769;DHT22;12064;50.890;5.424;2023-07-16T04:29:16;23.40;85.80
23769;DHT22;12064;50.890;5.424;2023-07-16T04:38:07;23.30;85.10
23769;DHT22;12064;50.890;5.424;2023-07-16T04:46:58;23.30;84.60
23769;DHT22;12064;50.890;5.424;2023-07-16T04:55:49;23.30;84.30
23769;DHT22;12064;50.890;5.424;2023-07-16T05:04:40;23.30;83.90
23769;DHT22;12064;50.890;5.424;2023-07-16T05:13:30;23.30;83.40
23769;DHT22;12064;50.890;5.424;2023-07-16T05:22:21;23.30;82.90
23769;DHT22;12064;50.890;5.424;2023-07-16T05:31:12;22.90;78.80
23769;DHT22;12064;50.890;5.424;2023-07-16T05:40:03;22.60;79.70
23769;DHT22;12064;50.890;5.424;2023-07-16T05:48:54;22.50;79.70
23769;DHT22;12064;50.890;5.424;2023-07-16T05:57:45;22.40;80.00
23769;DHT22;12064;50.890;5.424;2023-07-16T06:06:36;22.20;80.20
23769;DHT22;12064;50.890;5.424;2023-07-16T06:15:26;22.60;79.60
23769;DHT22;12064;50.890;5.424;2023-07-16T06:24:17;22.60;79.10
23769;DHT22;12064;50.890;5.424;2023-07-16T06:33:08;22.60;78.90
23769;DHT22;12064;50.890;5.424;2023-07-16T06:41:58;22.80;78.80
23769;DHT22;12064;50.890;5.424;2023-07-16T06:50:52;22.80;78.70
23769;DHT22;12064;50.890;5.424;2023-07-16T06:59:42;22.80;78.60
23769;DHT22;12064;50.890;5.424;2023-07-16T07:08:33;22.80;78.50
23769;DHT22;12064;50.890;5.424;2023-07-16T07:17:24;22.80;78.40
23769;DHT22;12064;50.890;5.424;2023-07-16T07:26:14;23.00;78.30
23769;DHT22;12064;50.890;5.424;2023-07-16T07:35:05;23.10;78.30
23769;DHT22;12064;50.890;5.424;2023-07-16T07:43:56;23.20;78.40
23769;DHT22;12064;50.890;5.424;2023-07-16T07:52:47;23.30;78.50
23769;DHT22;12064;50.890;5.424;2023-07-16T08:01:37;23.40;78.60
23769;DHT22;12064;50.890;5.424;2023-07-16T08:10:28;23.40;78.60
23769;DHT22;12064;50.890;5.424;2023-07-16T08:19:19;23.50;78.70
23769;DHT22;12064;50.890;5.424;2023-07-16T08:28:09;23.60;78.70
23769;DHT22;12064;50.890;5.424;2023-07-16T08:37:02;23.60;78.70
23769;DHT22;12064;50.890;5.424;2023-07-16T08:45:52;23.70;78.70
23769;DHT22;12064;50.890;5.424;2023-07-16T08:54:43;23.70;78.70
23769;DHT22;12064;50.890;5.424;2023-07-16T09:03:33;23.80;78.80
23769;DHT22;12064;50.890;5.424;2023-07-16T09:12:25;23.80;78.70
23769;DHT22;12064;50.890;5.424;2023-07-16T09:21:15;23.90;78.60
23769;DHT22;12064;50.890;5.424;2023-07-16T09:30:14;24.00;78.60
23769;DHT22;12064;50.890;5.424;2023-07-16T09:39:05;24.00;78.50
23769;DHT22;12064;50.890;5.424;2023-07-16T09:47:55;24.10;78.70
23769;DHT22;12064;50.890;5.424;2023-07-16T09:56:49;24.10;78.70
23769;DHT22;12064;50.890;5.424;2023-07-16T10:05:41;24.10;78.70
23769;DHT22;12064;50.890;5.424;2023-07-16T10:14:31;24.20;78.50
23769;DHT22;12064;50.890;5.424;2023-07-16T10:23:22;24.30;78.60
23769;DHT22;12064;50.890;5.424;2023-07-16T10:32:13;24.30;78.70
23769;DHT22;12064;50.890;5.424;2023-07-16T10:41:04;24.30;78.60
23769;DHT22;12064;50.890;5.424;2023-07-16T10:49:55;24.30;78.50
23769;DHT22;12064;50.890;5.424;2023-07-16T10:58:45;24.40;78.70
23769;DHT22;12064;50.890;5.424;2023-07-16T11:07:36;24.40;78.50
23769;DHT22;12064;50.890;5.424;2023-07-16T11:16:27;24.50;78.50
23769;DHT22;12064;50.890;5.424;2023-07-16T11:25:24;24.50;78.30
23769;DHT22;12064;50.890;5.424;2023-07-16T11:34:14;24.50;78.30
23769;DHT22;12064;50.890;5.424;2023-07-16T11:43:10;24.50;78.20
23769;DHT22;12064;50.890;5.424;2023-07-16T11:52:00;24.60;78.30
23769;DHT22;12064;50.890;5.424;2023-07-16T12:00:51;24.60;78.20
23769;DHT22;12064;50.890;5.424;2023-07-16T12:09:42;24.70;78.10
23769;DHT22;12064;50.890;5.424;2023-07-16T12:18:32;24.70;78.00
23769;DHT22;12064;50.890;5.424;2023-07-16T12:27:23;24.70;77.90
23769;DHT22;12064;50.890;5.424;2023-07-16T12:36:15;24.70;78.00
23769;DHT22;12064;50.890;5.424;2023-07-16T12:45:06;24.70;77.90
23769;DHT22;12064;50.890;5.424;2023-07-16T12:53:57;24.80;78.00
23769;DHT22;12064;50.890;5.424;2023-07-16T13:02:47;24.90;77.90
23769;DHT22;12064;50.890;5.424;2023-07-16T13:11:38;24.90;78.10
23769;DHT22;12064;50.890;5.424;2023-07-16T13:20:29;24.90;78.10
23769;DHT22;12064;50.890;5.424;2023-07-16T13:29:20;24.90;78.10
23769;DHT22;12064;50.890;5.424;2023-07-16T13:38:11;24.90;78.10
23769;DHT22;12064;50.890;5.424;2023-07-16T13:47:01;24.90;78.00
23769;DHT22;12064;50.890;5.424;2023-07-16T13:55:52;24.90;78.00
23769;DHT22;12064;50.890;5.424;2023-07-16T14:04:43;25.00;78.00
23769;DHT22;12064;50.890;5.424;2023-07-16T14:13:34;25.00;78.00
23769;DHT22;12064;50.890;5.424;2023-07-16T14:22:25;25.00;78.10
23769;DHT22;12064;50.890;5.424;2023-07-16T14:31:18;25.00;78.00
23769;DHT22;12064;50.890;5.424;2023-07-16T14:40:09;25.10;78.10
23769;DHT22;12064;50.890;5.424;2023-07-16T14:49:00;25.10;78.10
23769;DHT22;12064;50.890;5.424;2023-07-16T14:57:51;25.10;78.20
23769;DHT22;12064;50.890;5.424;2023-07-16T15:06:41;25.10;78.10
23769;DHT22;12064;50.890;5.424;2023-07-16T15:15:32;25.10;78.80
23769;DHT22;12064;50.890;5.424;2023-07-16T15:24:23;25.10;77.90
23769;DHT22;12064;50.890;5.424;2023-07-16T15:33:13;25.20;77.90
23769;DHT22;12064;50.890;5.424;2023-07-16T15:42:05;25.20;77.90
23769;DHT22;12064;50.890;5.424;2023-07-16T15:50:58;25.20;77.90
23769;DHT22;12064;50.890;5.424;2023-07-16T15:59:49;25.10;77.80
23769;DHT22;12064;50.890;5.424;2023-07-16T16:08:40;25.10;77.80
23769;DHT22;12064;50.890;5.424;2023-07-16T16:17:31;25.20;77.80
23769;DHT22;12064;50.890;5.424;2023-07-16T16:26:22;25.20;77.90
23769;DHT22;12064;50.890;5.424;2023-07-16T16:35:12;25.20;78.00
23769;DHT22;12064;50.890;5.424;2023-07-16T16:44:04;25.20;77.60
23769;DHT22;12064;50.890;5.424;2023-07-16T16:52:55;25.20;77.60
23769;DHT22;12064;50.890;5.424;2023-07-16T17:01:49;25.20;77.30
23769;DHT22;12064;50.890;5.424;2023-07-16T17:10:39;25.20;77.20
23769;DHT22;12064;50.890;5.424;2023-07-16T17:19:31;25.20;76.20
23769;DHT22;12064;50.890;5.424;2023-07-16T17:28:23;25.20;76.80
23769;DHT22;12064;50.890;5.424;2023-07-16T17:37:14;25.20;76.60
23769;DHT22;12064;50.890;5.424;2023-07-16T17:46:05;25.20;77.90
23769;DHT22;12064;50.890;5.424;2023-07-16T17:54:57;25.20;76.80
23769;DHT22;12064;50.890;5.424;2023-07-16T18:03:48;25.20;76.40
23769;DHT22;12064;50.890;5.424;2023-07-16T18:12:38;25.10;76.00
23769;DHT22;12064;50.890;5.424;2023-07-16T18:21:29;24.90;75.90
23769;DHT22;12064;50.890;5.424;2023-07-16T18:30:20;24.80;78.70
23769;DHT22;12064;50.890;5.424;2023-07-16T18:39:11;24.70;78.00
23769;DHT22;12064;50.890;5.424;2023-07-16T18:48:02;24.70;77.00
23769;DHT22;12064;50.890;5.424;2023-07-16T18:56:52;24.70;77.90
23769;DHT22;12064;50.890;5.424;2023-07-16T19:05:43;24.60;77.40
23769;DHT22;12064;50.890;5.424;2023-07-16T19:14:34;24.50;78.60
23769;DHT22;12064;50.890;5.424;2023-07-16T19:23:25;24.30;79.40
23769;DHT22;12064;50.890;5.424;2023-07-16T19:32:16;24.30;79.10
23769;DHT22;12064;50.890;5.424;2023-07-16T19:41:07;24.30;78.70
23769;DHT22;12064;50.890;5.424;2023-07-16T19:49:58;24.20;79.80
23769;DHT22;12064;50.890;5.424;2023-07-16T19:58:49;24.10;80.00
23769;DHT22;12064;50.890;5.424;2023-07-16T20:07:42;24.10;80.00
23769;DHT22;12064;50.890;5.424;2023-07-16T20:16:33;24.00;80.90
23769;DHT22;12064;50.890;5.424;2023-07-16T20:25:28;24.00;81.60
23769;DHT22;12064;50.890;5.424;2023-07-16T20:34:19;23.80;83.40
23769;DHT22;12064;50.890;5.424;2023-07-16T20:43:09;23.70;86.20
23769;DHT22;12064;50.890;5.424;2023-07-16T20:52:00;23.50;86.60
23769;DHT22;12064;50.890;5.424;2023-07-16T21:00:51;23.30;87.00
23769;DHT22;12064;50.890;5.424;2023-07-16T21:09:41;23.30;87.70
23769;DHT22;12064;50.890;5.424;2023-07-16T21:18:32;23.40;86.70
23769;DHT22;12064;50.890;5.424;2023-07-16T21:27:27;23.60;86.00
23769;DHT22;12064;50.890;5.424;2023-07-16T21:36:18;23.60;85.50
23769;DHT22;12064;50.890;5.424;2023-07-16T21:45:10;23.60;85.60
23769;DHT22;12064;50.890;5.424;2023-07-16T21:54:01;23.50;84.70
23769;DHT22;12064;50.890;5.424;2023-07-16T22:02:51;23.60;85.10
23769;DHT22;12064;50.890;5.424;2023-07-16T22:11:42;23.50;85.10
23769;DHT22;12064;50.890;5.424;2023-07-16T22:20:33;23.70;84.20
23769;DHT22;12064;50.890;5.424;2023-07-16T22:29:24;23.70;84.00
23769;DHT22;12064;50.890;5.424;2023-07-16T22:38:15;23.70;83.80
23769;DHT22;12064;50.890;5.424;2023-07-16T22:47:06;23.70;83.90
23769;DHT22;12064;50.890;5.424;2023-07-16T22:55:56;23.70;84.00
23769;DHT22;12064;50.890;5.424;2023-07-16T23:04:47;23.70;84.20
23769;DHT22;12064;50.890;5.424;2023-07-16T23:13:38;23.70;84.50
23769;DHT22;12064;50.890;5.424;2023-07-16T23:22:28;23.70;84.60
23769;DHT22;12064;50.890;5.424;2023-07-16T23:31:19;23.70;84.50
23769;DHT22;12064;50.890;5.424;2023-07-16T23:40:10;23.60;84.60
23769;DHT22;12064;50.890;5.424;2023-07-16T23:49:02;23.60;84.70
23769;DHT22;12064;50.890;5.424;2023-07-16T23:57:53;23.60;85.10
